Time;durP1;ratioP1;P1;durP2;ratioP2;P2;SDS_P1;SDS_P2;PMS_P1;PMS_P2;Temp;Humidity;BMP_temperature;BMP_pressure;BME280_temperature;BME280_humidity;BME280_pressure;Samples;Min_cycle;Max_cycle;Signal;HPM_P1;HPM_P2
2021/06/05 00:01:59;;;;;;;9.43;1.65;;;;;;;;;;5243575;27;20060;-85
2021/06/05 00:04:30;;;;;;;11.63;1.77;;;;;;;;;;5249330;27;20075;-85
2021/06/05 00:07:02;;;;;;;10.65;1.80;;;;;;;;;;5261658;27;20059;-86
2021/06/05 00:09:30;;;;;;;7.07;1.37;;;;;;;;;;5268032;27;20032;-86
2021/06/05 00:11:59;;;;;;;10.85;1.45;;;;;;;;;;5263676;27;20053;-86
2021/06/05 00:14:30;;;;;;;11.18;1.50;;;;;;;;;;5270069;27;20024;-85
2021/06/05 00:17:01;;;;;;;13.18;1.65;;;;;;;;;;5247983;27;20029;-86
2021/06/05 00:19:33;;;;;;;7.82;1.70;;;;;;;;;;5261495;27;20032;-86
2021/06/05 00:22:04;;;;;;;6.90;1.40;;;;;;;;;;5240341;27;20057;-87
2021/06/05 00:24:35;;;;;;;11.98;1.70;;;;;;;;;;5269272;27;20029;-86
2021/06/05 00:27:06;;;;;;;10.05;1.75;;;;;;;;;;5247672;27;20057;-86
2021/06/05 00:29:35;;;;;;;14.95;2.00;;;;;;;;;;5263451;27;20333;-88
2021/06/05 00:32:06;;;;;;;11.73;1.70;;;;;;;;;;5245429;27;20065;-85
2021/06/05 00:34:37;;;;;;;9.27;2.03;;;;;;;;;;5250623;27;20033;-86
2021/06/05 00:37:06;;;;;;;9.05;1.67;;;;;;;;;;5266029;27;20053;-86
2021/06/05 00:39:36;;;;;;;9.68;1.70;;;;;;;;;;5263089;27;20435;-86
2021/06/05 00:42:13;;;;;;;10.52;1.98;;;;;;;;;;5263260;27;20057;-86
2021/06/05 00:44:45;;;;;;;8.80;1.85;;;;;;;;;;5264818;27;20264;-85
2021/06/05 00:47:17;;;;;;;7.80;1.50;;;;;;;;;;5250035;27;20075;-86
2021/06/05 00:49:46;;;;;;;12.25;2.15;;;;;;;;;;5263393;27;20057;-86
2021/06/05 00:52:21;;;;;;;8.13;1.70;;;;;;;;;;5262519;27;20039;-87
2021/06/05 00:54:52;;;;;;;13.27;2.22;;;;;;;;;;5241416;27;20340;-85
2021/06/05 00:57:20;;;;;;;14.35;1.98;;;;;;;;;;5259716;27;20053;-84
2021/06/05 00:59:49;;;;;;;12.65;1.80;;;;;;;;;;5260752;27;20044;-86
2021/06/05 01:02:22;;;;;;;9.52;1.92;;;;;;;;;;5263702;27;20594;-85
2021/06/05 01:04:54;;;;;;;9.27;1.98;;;;;;;;;;5258166;27;20040;-84
2021/06/05 01:07:28;;;;;;;18.08;2.67;;;;;;;;;;5256099;27;20072;-86
2021/06/05 01:10:15;;;;;;;20.00;2.37;;;;;;;;;;5242239;27;20057;-86
2021/06/05 01:13:06;;;;;;;7.87;1.77;;;;;;;;;;5247427;27;20304;-84
2021/06/05 01:15:49;;;;;;;12.07;1.67;;;;;;;;;;5268687;27;20115;-86
2021/06/05 01:18:30;;;;;;;5.62;1.60;;;;;;;;;;5241564;27;20025;-86
2021/06/05 01:21:22;;;;;;;12.40;1.60;;;;;;;;;;5266520;27;20036;-86
2021/06/05 01:24:16;;;;;;;9.52;1.95;;;;;;;;;;5262207;27;20413;-86
2021/06/05 01:26:50;;;;;;;9.98;1.95;;;;;;;;;;5247869;27;20044;-86
2021/06/05 01:29:25;;;;;;;8.50;2.25;;;;;;;;;;5259143;27;20057;-86
2021/06/05 01:31:59;;;;;;;9.63;1.70;;;;;;;;;;5264313;27;20436;-85
2021/06/05 01:34:31;;;;;;;9.63;1.90;;;;;;;;;;5257413;27;20041;-83
2021/06/05 01:37:02;;;;;;;15.55;2.08;;;;;;;;;;5253551;27;20026;-85
2021/06/05 01:39:35;;;;;;;10.73;2.20;;;;;;;;;;5260611;27;20044;-88
2021/06/05 01:42:08;;;;;;;6.37;1.45;;;;;;;;;;5247488;27;20097;-85
2021/06/05 01:44:40;;;;;;;11.48;1.65;;;;;;;;;;5256785;27;20026;-86
2021/06/05 01:47:12;;;;;;;8.93;1.87;;;;;;;;;;5260047;27;20029;-86
2021/06/05 01:49:43;;;;;;;9.70;1.87;;;;;;;;;;5251767;27;20034;-84
2021/06/05 01:52:21;;;;;;;6.65;1.52;;;;;;;;;;5266792;27;20083;-85
2021/06/05 01:54:56;;;;;;;10.00;1.60;;;;;;;;;;5261881;27;20034;-85
2021/06/05 01:57:32;;;;;;;10.43;2.00;;;;;;;;;;5265703;27;20444;-85
2021/06/05 02:00:03;;;;;;;9.20;1.67;;;;;;;;;;5269099;27;20049;-86
2021/06/05 02:02:40;;;;;;;13.15;2.35;;;;;;;;;;5251165;27;20169;-88
2021/06/05 02:05:12;;;;;;;10.02;2.85;;;;;;;;;;5258594;27;20025;-86
2021/06/05 02:07:43;;;;;;;13.75;3.15;;;;;;;;;;5269533;27;20068;-86
2021/06/05 02:10:17;;;;;;;13.15;3.50;;;;;;;;;;5264700;27;20030;-86
2021/06/05 02:12:52;;;;;;;11.02;3.22;;;;;;;;;;5263972;27;20026;-88
2021/06/05 02:15:24;;;;;;;8.43;3.60;;;;;;;;;;5242704;27;20079;-86
2021/06/05 02:17:58;;;;;;;9.35;3.37;;;;;;;;;;5270018;27;20040;-86
2021/06/05 02:20:30;;;;;;;29.15;13.82;;;;;;;;;;5264696;27;20049;-86
2021/06/05 02:23:01;;;;;;;22.60;13.25;;;;;;;;;;5258897;27;20021;-86
2021/06/05 02:25:33;;;;;;;31.67;15.95;;;;;;;;;;5243087;27;20358;-85
2021/06/05 02:28:04;;;;;;;27.77;17.10;;;;;;;;;;5248387;27;20054;-85
2021/06/05 02:30:37;;;;;;;23.70;17.02;;;;;;;;;;5243792;27;20852;-86
2021/06/05 02:33:08;;;;;;;25.80;18.15;;;;;;;;;;5248915;27;20035;-87
2021/06/05 02:35:42;;;;;;;24.87;16.55;;;;;;;;;;5249287;27;20036;-85
2021/06/05 02:38:15;;;;;;;20.05;14.73;;;;;;;;;;5241011;27;20049;-86
2021/06/05 02:40:46;;;;;;;16.75;14.07;;;;;;;;;;5257459;27;20135;-85
2021/06/05 02:43:21;;;;;;;20.17;14.82;;;;;;;;;;5263740;27;20277;-86
2021/06/05 02:46:00;;;;;;;20.95;15.82;;;;;;;;;;5247432;27;20039;-85
2021/06/05 02:48:39;;;;;;;26.45;18.92;;;;;;;;;;5250352;27;20029;-85
2021/06/05 02:51:11;;;;;;;26.17;19.73;;;;;;;;;;5244774;27;20040;-85
2021/06/05 02:53:41;;;;;;;19.83;15.80;;;;;;;;;;5267210;27;20076;-87
2021/06/05 02:56:14;;;;;;;24.77;14.60;;;;;;;;;;5251373;27;20017;-88
2021/06/05 02:58:45;;;;;;;18.27;13.75;;;;;;;;;;5249749;27;20544;-86
2021/06/05 03:01:17;;;;;;;19.37;13.40;;;;;;;;;;5261785;27;20104;-84
2021/06/05 03:03:48;;;;;;;17.42;12.00;;;;;;;;;;5245355;27;20038;-86
2021/06/05 03:06:19;;;;;;;17.15;11.00;;;;;;;;;;5261846;27;20043;-87
2021/06/05 03:08:50;;;;;;;12.35;10.45;;;;;;;;;;5258061;27;20060;-85
2021/06/05 03:11:22;;;;;;;8.35;3.00;;;;;;;;;;5246218;27;20045;-95
2021/06/05 03:13:59;;;;;;;10.25;2.97;;;;;;;;;;5218795;27;20501;-93
2021/06/05 03:16:42;;;;;;;8.43;2.00;;;;;;;;;;5217169;27;20097;-94
2021/06/05 03:19:17;;;;;;;10.27;2.42;;;;;;;;;;5218109;27;20064;-93
2021/06/05 03:21:51;;;;;;;9.25;2.20;;;;;;;;;;5217607;27;20026;-93
2021/06/05 03:24:40;;;;;;;;;;;;;;;;;;;;;
2021/06/05 03:27:11;;;;;;;11.00;5.65;;;;;;;;;;5232662;27;20034;-95
2021/06/05 03:29:45;;;;;;;11.23;6.87;;;;;;;;;;5217125;27;20088;-94
2021/06/05 03:32:16;;;;;;;21.58;13.88;;;;;;;;;;5219355;27;20073;-93
2021/06/05 03:34:46;;;;;;;18.33;3.25;;;;;;;;;;5216456;27;20052;-95
2021/06/05 03:37:21;;;;;;;10.25;5.40;;;;;;;;;;5216062;27;20070;-93
2021/06/05 03:39:55;;;;;;;10.25;4.12;;;;;;;;;;5234425;27;20034;-94
2021/06/05 03:42:31;;;;;;;22.80;17.95;;;;;;;;;;5217920;27;20038;-93
2021/06/05 03:45:10;;;;;;;24.08;18.33;;;;;;;;;;5216578;27;20054;-96
2021/06/05 03:47:42;;;;;;;18.83;14.45;;;;;;;;;;5215903;27;20414;-93
2021/06/05 03:50:26;;;;;;;27.75;21.87;;;;;;;;;;5217426;27;20776;-94
2021/06/05 03:52:59;;;;;;;31.37;28.45;;;;;;;;;;5217156;27;20050;-94
2021/06/05 03:55:36;;;;;;;53.28;48.40;;;;;;;;;;5217579;27;20041;-95
2021/06/05 03:58:15;;;;;;;49.60;45.28;;;;;;;;;;5217939;27;20030;-94
2021/06/05 04:00:52;;;;;;;47.35;43.72;;;;;;;;;;5216317;27;20026;-94
2021/06/05 04:03:26;;;;;;;43.42;39.15;;;;;;;;;;5216892;27;20042;-95
2021/06/05 04:06:08;;;;;;;;;;;;;;;;;;5218262;27;20030;-93
2021/06/05 04:08:40;;;;;;;39.78;36.30;;;;;;;;;;5217409;27;19973;-93
2021/06/05 04:11:13;;;;;;;40.72;36.35;;;;;;;;;;5217011;27;20026;-95
2021/06/05 04:13:46;;;;;;;41.92;37.72;;;;;;;;;;5218414;27;20037;-94
2021/06/05 04:16:23;;;;;;;40.50;36.55;;;;;;;;;;5218289;27;20065;-94
2021/06/05 04:18:56;;;;;;;38.63;35.10;;;;;;;;;;5216921;27;20022;-94
2021/06/05 04:21:29;;;;;;;37.88;34.20;;;;;;;;;;5217294;27;20026;-94
2021/06/05 04:24:03;;;;;;;38.35;34.63;;;;;;;;;;5217448;27;20042;-94
2021/06/05 04:26:32;;;;;;;38.03;34.60;;;;;;;;;;5216578;27;20062;-95
2021/06/05 04:29:08;;;;;;;37.25;33.28;;;;;;;;;;5216243;27;20340;-95
2021/06/05 04:31:40;;;;;;;37.95;34.20;;;;;;;;;;5216420;27;20031;-93
2021/06/05 04:34:13;;;;;;;38.05;34.33;;;;;;;;;;5216911;27;20034;-94
2021/06/05 04:36:44;;;;;;;37.13;33.50;;;;;;;;;;5217208;27;20017;-96
2021/06/05 04:39:17;;;;;;;35.63;31.73;;;;;;;;;;5218299;27;20666;-94
2021/06/05 04:41:51;;;;;;;35.73;31.67;;;;;;;;;;5217071;27;20027;-93
2021/06/05 04:44:23;;;;;;;36.03;32.35;;;;;;;;;;5217415;27;20030;-96
2021/06/05 04:46:56;;;;;;;37.03;33.42;;;;;;;;;;5218255;27;20590;-96
2021/06/05 04:49:32;;;;;;;37.53;33.88;;;;;;;;;;5234980;27;20031;-95
2021/06/05 04:52:10;;;;;;;37.30;34.13;;;;;;;;;;5218049;27;20821;-95
2021/06/05 04:54:58;;;;;;;38.40;35.17;;;;;;;;;;5218087;27;20041;-95
2021/06/05 04:57:51;;;;;;;37.75;34.67;;;;;;;;;;5218035;27;20043;-94
2021/06/05 05:00:26;;;;;;;40.33;37.13;;;;;;;;;;5216823;27;20100;-95
2021/06/05 05:02:59;;;;;;;41.85;38.58;;;;;;;;;;5216012;27;20033;-94
2021/06/05 05:05:30;;;;;;;42.60;38.97;;;;;;;;;;5216220;27;20372;-94
2021/06/05 05:08:02;;;;;;;42.20;38.50;;;;;;;;;;5217046;27;20031;-94
2021/06/05 05:10:41;;;;;;;41.47;38.08;;;;;;;;;;5217942;27;20038;-94
2021/06/05 05:13:10;;;;;;;42.10;38.50;;;;;;;;;;5217096;27;20070;-95
2021/06/05 05:15:42;;;;;;;43.25;39.63;;;;;;;;;;5218204;27;20081;-94
2021/06/05 05:18:16;;;;;;;42.97;39.08;;;;;;;;;;5215582;27;20035;-93
2021/06/05 05:20:48;;;;;;;42.90;38.97;;;;;;;;;;5217371;27;20042;-94
2021/06/05 05:23:21;;;;;;;43.42;39.65;;;;;;;;;;5217171;27;20065;-94
2021/06/05 05:25:51;;;;;;;44.05;40.58;;;;;;;;;;5217851;27;20354;-95
2021/06/05 05:28:22;;;;;;;45.10;41.47;;;;;;;;;;5217583;27;20307;-94
2021/06/05 05:30:55;;;;;;;46.63;42.35;;;;;;;;;;5215873;27;20375;-95
2021/06/05 05:33:29;;;;;;;44.65;41.15;;;;;;;;;;5218626;27;20037;-94
2021/06/05 05:36:01;;;;;;;45.97;42.40;;;;;;;;;;5218983;27;20064;-94
2021/06/05 05:38:41;;;;;;;44.58;41.05;;;;;;;;;;5220481;27;20056;-95
2021/06/05 05:41:17;;;;;;;44.70;41.40;;;;;;;;;;5218232;27;20027;-95
2021/06/05 05:44:02;;;;;;;46.22;42.40;;;;;;;;;;5220135;27;20062;-94
2021/06/05 05:46:37;;;;;;;47.08;43.63;;;;;;;;;;5219584;27;20093;-95
2021/06/05 05:49:11;;;;;;;50.28;46.63;;;;;;;;;;5218474;27;20026;-94
2021/06/05 05:51:44;;;;;;;44.00;41.20;;;;;;;;;;5219134;27;20027;-94
2021/06/05 05:54:13;;;;;;;38.38;34.97;;;;;;;;;;5217615;27;20022;-94
2021/06/05 05:56:47;;;;;;;40.50;37.83;;;;;;;;;;5219209;27;20406;-93
2021/06/05 05:59:17;;;;;;;38.22;36.13;;;;;;;;;;5216979;27;20038;-95
2021/06/05 06:01:51;;;;;;;40.30;37.80;;;;;;;;;;5218611;27;20026;-93
2021/06/05 06:04:23;;;;;;;35.15;32.60;;;;;;;;;;5218660;27;20034;-95
2021/06/05 06:06:54;;;;;;;34.45;32.42;;;;;;;;;;5218827;27;20090;-95
2021/06/05 06:09:25;;;;;;;35.20;32.75;;;;;;;;;;5217280;27;20026;-95
2021/06/05 06:11:54;;;;;;;26.10;24.50;;;;;;;;;;5217360;27;20026;-95
2021/06/05 06:14:25;;;;;;;25.77;24.17;;;;;;;;;;5218789;27;20486;-94
2021/06/05 06:16:58;;;;;;;17.42;16.02;;;;;;;;;;5219522;27;20019;-95
2021/06/05 06:19:35;;;;;;;16.52;14.82;;;;;;;;;;5219480;27;20041;-94
2021/06/05 06:22:03;;;;;;;11.65;8.27;;;;;;;;;;5219142;27;20018;-95
2021/06/05 06:24:39;;;;;;;8.77;5.68;;;;;;;;;;5218813;27;20027;-94
2021/06/05 06:27:07;;;;;;;4.97;3.78;;;;;;;;;;5217764;27;20042;-95
2021/06/05 06:29:41;;;;;;;;;;;;;;;;;;5217932;27;20032;-95
2021/06/05 06:32:23;;;;;;;27.02;24.83;;;;;;;;;;5220433;27;19941;-94
2021/06/05 06:35:06;;;;;;;11.93;10.75;;;;;;;;;;5218397;27;20032;-96
2021/06/05 06:37:34;;;;;;;7.37;4.47;;;;;;;;;;5235683;27;20052;-96
2021/06/05 06:40:09;;;;;;;8.93;1.55;;;;;;;;;;5218891;27;20014;-96
2021/06/05 06:42:42;;;;;;;8.13;2.12;;;;;;;;;;5219095;27;20048;-96
2021/06/05 06:45:20;;;;;;;8.63;1.48;;;;;;;;;;5217037;27;20068;-95
2021/06/05 06:48:03;;;;;;;5.47;1.27;;;;;;;;;;5216978;27;20073;-96
2021/06/05 06:50:38;;;;;;;10.05;1.48;;;;;;;;;;5216792;27;20026;-95
2021/06/05 06:53:13;;;;;;;4.60;1.50;;;;;;;;;;5217569;27;20027;-95
2021/06/05 06:55:46;;;;;;;6.35;1.60;;;;;;;;;;5217301;27;20030;-96
2021/06/05 06:58:21;;;;;;;4.93;1.30;;;;;;;;;;5234066;27;20066;-96
2021/06/05 07:00:55;;;;;;;4.97;1.40;;;;;;;;;;5216560;27;20676;-96
2021/06/05 07:03:32;;;;;;;6.80;1.70;;;;;;;;;;5215364;27;20093;-95
2021/06/05 07:06:09;;;;;;;4.10;1.60;;;;;;;;;;5215426;27;20033;-96
2021/06/05 07:08:46;;;;;;;3.20;1.15;;;;;;;;;;5213518;27;20062;-96
2021/06/05 07:14:13;;;;;;;5.18;1.30;;;;;;;;;;5224263;27;20093;-96
2021/06/05 07:16:45;;;;;;;3.60;1.27;;;;;;;;;;5219197;27;20025;-96
2021/06/05 07:19:13;;;;;;;4.47;1.35;;;;;;;;;;5215859;27;20054;-96
2021/06/05 07:21:43;;;;;;;7.68;1.67;;;;;;;;;;5216532;27;20041;-96
2021/06/05 07:24:20;;;;;;;7.53;1.60;;;;;;;;;;5217385;27;20688;-96
2021/06/05 07:26:51;;;;;;;5.22;1.20;;;;;;;;;;5216317;27;20500;-96
2021/06/05 07:29:22;;;;;;;7.20;1.35;;;;;;;;;;5215953;27;20419;-96
2021/06/05 07:31:53;;;;;;;7.75;1.67;;;;;;;;;;5216358;27;20034;-95
2021/06/05 07:34:23;;;;;;;6.40;1.27;;;;;;;;;;5217745;27;20049;-96
2021/06/05 07:37:03;;;;;;;7.80;1.37;;;;;;;;;;5217262;27;20022;-95
2021/06/05 07:39:36;;;;;;;6.93;1.40;;;;;;;;;;5216278;27;20121;-95
2021/06/05 07:42:08;;;;;;;10.45;1.52;;;;;;;;;;5214429;27;20041;-96
2021/06/05 07:44:42;;;;;;;6.20;1.60;;;;;;;;;;5217096;27;20041;-95
2021/06/05 07:47:18;;;;;;;7.85;2.50;;;;;;;;;;5216018;27;20056;-96
2021/06/05 07:49:59;;;;;;;9.60;1.62;;;;;;;;;;5218588;27;20041;-95
2021/06/05 07:52:50;;;;;;;10.40;1.95;;;;;;;;;;5215874;27;20462;-94
2021/06/05 07:55:42;;;;;;;11.73;1.77;;;;;;;;;;5201846;27;20074;-94
2021/06/05 07:58:18;;;;;;;11.40;1.80;;;;;;;;;;5217417;27;20037;-95
2021/06/05 08:00:54;;;;;;;7.93;2.13;;;;;;;;;;5216534;27;20111;-96
2021/06/05 08:03:23;;;;;;;11.45;2.25;;;;;;;;;;5216234;27;20028;-93
2021/06/05 08:05:52;;;;;;;11.52;2.00;;;;;;;;;;5217060;27;20018;-95
2021/06/05 08:08:31;;;;;;;16.77;2.00;;;;;;;;;;5216794;27;20033;-95
2021/06/05 08:11:11;;;;;;;10.60;1.90;;;;;;;;;;5211476;27;20066;-95
2021/06/05 08:13:49;;;;;;;6.68;1.52;;;;;;;;;;5216300;27;20786;-96
2021/06/05 08:16:29;;;;;;;7.95;1.87;;;;;;;;;;5218169;27;20035;-95
2021/06/05 08:19:08;;;;;;;6.50;1.52;;;;;;;;;;5216434;27;20048;-95
2021/06/05 08:22:08;;;;;;;4.93;1.50;;;;;;;;;;5196887;27;20026;-96
2021/06/05 08:24:48;;;;;;;5.95;1.55;;;;;;;;;;5218951;27;20039;-96
2021/06/05 08:27:23;;;;;;;8.82;1.60;;;;;;;;;;5217005;27;20054;-95
2021/06/05 08:29:55;;;;;;;5.78;1.65;;;;;;;;;;5215700;27;20078;-95
2021/06/05 08:32:31;;;;;;;9.63;2.10;;;;;;;;;;5216060;27;20038;-95
2021/06/05 08:35:00;;;;;;;8.25;1.73;;;;;;;;;;5216712;27;20026;-94
2021/06/05 08:37:35;;;;;;;5.90;1.80;;;;;;;;;;5216756;27;20072;-96
2021/06/05 08:40:10;;;;;;;8.32;1.85;;;;;;;;;;5216349;27;20023;-96
2021/06/05 08:42:53;;;;;;;6.75;1.50;;;;;;;;;;5218720;27;20105;-95
2021/06/05 08:45:43;;;;;;;7.62;2.05;;;;;;;;;;5218014;27;20041;-96
2021/06/05 08:48:25;;;;;;;8.32;1.95;;;;;;;;;;5215728;27;20042;-96
2021/06/05 08:51:08;;;;;;;6.43;1.80;;;;;;;;;;5215070;27;20040;-96
2021/06/05 08:53:44;;;;;;;10.35;1.58;;;;;;;;;;5232872;27;20037;-94
2021/06/05 08:56:28;;;;;;;6.93;1.60;;;;;;;;;;5217641;27;20026;-96
2021/06/05 08:59:04;;;;;;;7.32;2.17;;;;;;;;;;5215384;27;20065;-96
2021/06/05 09:01:48;;;;;;;7.25;1.67;;;;;;;;;;5215296;27;20437;-95
2021/06/05 09:04:30;;;;;;;8.20;1.80;;;;;;;;;;5213880;27;20058;-96
2021/06/05 09:07:05;;;;;;;9.10;1.45;;;;;;;;;;5214369;27;20100;-95
2021/06/05 09:09:38;;;;;;;6.15;1.70;;;;;;;;;;5215460;27;20407;-94
2021/06/05 09:12:12;;;;;;;4.35;1.50;;;;;;;;;;5215740;27;20030;-95
2021/06/05 09:14:42;;;;;;;6.90;1.87;;;;;;;;;;5212458;27;20060;-95
2021/06/05 09:17:59;;;;;;;5.57;1.33;;;;;;;;;;5177992;27;20033;-95
2021/06/05 09:20:38;;;;;;;5.45;1.62;;;;;;;;;;5216692;27;20049;-96
2021/06/05 09:23:24;;;;;;;14.57;1.95;;;;;;;;;;5217768;27;20331;-96
2021/06/05 09:26:31;;;;;;;7.60;1.70;;;;;;;;;;5218078;27;20102;-96
2021/06/05 09:33:16;;;;;;;6.28;1.50;;;;;;;;;;5221681;27;20091;-96
2021/06/05 09:36:08;;;;;;;5.05;1.73;;;;;;;;;;5217368;27;20069;-96
2021/06/05 09:43:35;;;;;;;7.50;2.00;;;;;;;;;;5213181;27;20077;-96
2021/06/05 09:46:54;;;;;;;5.70;1.92;;;;;;;;;;5236299;27;20363;-95
2021/06/05 09:50:04;;;;;;;18.60;2.85;;;;;;;;;;5214453;27;20104;-94
2021/06/05 09:53:32;;;;;;;8.90;2.10;;;;;;;;;;5210324;27;20018;-95
2021/06/05 09:56:34;;;;;;;9.10;2.35;;;;;;;;;;5217084;27;20038;-95
2021/06/05 09:59:34;;;;;;;8.63;1.85;;;;;;;;;;5218540;27;20167;-95
2021/06/05 10:02:27;;;;;;;6.00;1.87;;;;;;;;;;5217447;27;20438;-95
2021/06/05 10:05:13;;;;;;;8.45;1.52;;;;;;;;;;5213122;27;20449;-95
2021/06/05 10:07:53;;;;;;;3.53;1.45;;;;;;;;;;5215349;27;20121;-95
2021/06/05 10:10:48;;;;;;;5.68;1.85;;;;;;;;;;5217290;27;20034;-95
2021/06/05 10:14:05;;;;;;;5.53;1.33;;;;;;;;;;5217936;27;20031;-94
2021/06/05 10:20:34;;;;;;;7.12;1.90;;;;;;;;;;5149605;27;20027;-95
2021/06/05 10:23:45;;;;;;;29.37;2.70;;;;;;;;;;5214486;27;20038;-94
2021/06/05 10:27:21;;;;;;;7.50;1.98;;;;;;;;;;5138893;27;20020;-95
2021/06/05 10:31:23;;;;;;;7.25;1.90;;;;;;;;;;5133615;27;20046;-94
2021/06/05 10:34:49;;;;;;;7.62;2.00;;;;;;;;;;5073795;28;20081;-95
2021/06/05 10:37:42;;;;;;;9.10;1.77;;;;;;;;;;5064281;28;20447;-95
2021/06/05 10:40:32;;;;;;;8.85;2.25;;;;;;;;;;5115165;27;20028;-94
2021/06/05 10:43:33;;;;;;;8.20;1.77;;;;;;;;;;5120104;27;20028;-94
2021/06/05 10:46:48;;;;;;;7.18;1.90;;;;;;;;;;5148894;27;20026;-95
2021/06/05 10:49:42;;;;;;;7.95;2.22;;;;;;;;;;5132707;27;20062;-95
2021/06/05 10:53:27;;;;;;;7.22;1.70;;;;;;;;;;5231758;27;20038;-96
2021/06/05 10:56:05;;;;;;;6.63;1.53;;;;;;;;;;5215929;27;20027;-95
2021/06/05 10:58:54;;;;;;;7.80;1.90;;;;;;;;;;5217162;27;20023;-95
2021/06/05 11:01:29;;;;;;;7.22;1.95;;;;;;;;;;5217163;27;20037;-93
2021/06/05 11:05:12;;;;;;;4.22;1.40;;;;;;;;;;5222925;27;20022;-94
2021/06/05 11:08:11;;;;;;;12.23;2.25;;;;;;;;;;5217568;27;20026;-95
2021/06/05 11:11:10;;;;;;;16.80;1.75;;;;;;;;;;5217081;27;20065;-94
2021/06/05 11:14:44;;;;;;;4.80;1.60;;;;;;;;;;5224709;27;20034;-96
2021/06/05 11:17:32;;;;;;;7.70;2.08;;;;;;;;;;5222035;27;20065;-96
2021/06/05 11:20:05;;;;;;;8.18;1.80;;;;;;;;;;5214503;27;20046;-93
2021/06/05 11:23:03;;;;;;;14.30;2.65;;;;;;;;;;5213659;27;20432;-95
2021/06/05 11:25:41;;;;;;;;;;;;;;;;;;5232570;27;20053;-94
2021/06/05 11:28:51;;;;;;;7.20;1.90;;;;;;;;;;5217423;27;19975;-95
2021/06/05 11:31:39;;;;;;;6.68;1.50;;;;;;;;;;5216895;27;20057;-94
2021/06/05 11:34:34;;;;;;;8.45;1.62;;;;;;;;;;5216280;27;20036;-94
2021/06/05 11:37:16;;;;;;;7.65;1.95;;;;;;;;;;5215587;27;20060;-93
2021/06/05 11:40:06;;;;;;;4.75;1.60;;;;;;;;;;5216631;27;20030;-95
2021/06/05 11:42:55;;;;;;;22.92;3.58;;;;;;;;;;5218305;27;20100;-95
2021/06/05 11:45:58;;;;;;;7.78;1.80;;;;;;;;;;5216454;27;20026;-94
2021/06/05 11:48:42;;;;;;;9.70;2.10;;;;;;;;;;5213989;27;20034;-94
2021/06/05 11:51:23;;;;;;;10.65;2.17;;;;;;;;;;5216866;27;20022;-96
2021/06/05 11:53:58;;;;;;;;;;;;;;;;;;5217699;27;20339;-95
2021/06/05 11:56:58;;;;;;;40.63;4.20;;;;;;;;;;5216049;27;19985;-96
2021/06/05 11:59:50;;;;;;;5.93;1.80;;;;;;;;;;5217647;27;20447;-95
2021/06/05 12:02:36;;;;;;;17.90;2.67;;;;;;;;;;5215315;27;20034;-95
2021/06/05 12:05:20;;;;;;;6.32;1.65;;;;;;;;;;5215999;27;20044;-95
2021/06/05 12:08:43;;;;;;;10.75;1.83;;;;;;;;;;5149951;27;20039;-95
2021/06/05 12:11:38;;;;;;;7.60;1.87;;;;;;;;;;5135856;27;20047;-94
2021/06/05 12:14:34;;;;;;;7.70;1.77;;;;;;;;;;5134291;27;20038;-95
2021/06/05 12:17:30;;;;;;;9.70;1.60;;;;;;;;;;5134114;27;20058;-95
2021/06/05 12:23:38;;;;;;;39.17;3.83;;;;;;;;;;5151955;27;20057;-95
2021/06/05 12:26:26;;;;;;;42.03;4.32;;;;;;;;;;5135874;27;20072;-94
2021/06/05 12:29:19;;;;;;;7.32;1.60;;;;;;;;;;5150720;27;20059;-93
2021/06/05 12:31:50;;;;;;;7.37;1.52;;;;;;;;;;5152525;27;20041;-94
2021/06/05 12:34:35;;;;;;;33.38;4.35;;;;;;;;;;5216129;27;20065;-94
2021/06/05 12:37:30;;;;;;;12.50;1.75;;;;;;;;;;5218943;27;20072;-94
2021/06/05 12:40:18;;;;;;;7.40;1.77;;;;;;;;;;5216761;27;20370;-93
2021/06/05 12:42:47;;;;;;;10.32;1.87;;;;;;;;;;5215051;27;20022;-94
2021/06/05 12:45:24;;;;;;;5.37;1.67;;;;;;;;;;5215903;27;20041;-95
2021/06/05 12:47:59;;;;;;;14.18;2.42;;;;;;;;;;5232175;27;20806;-93
2021/06/05 12:50:38;;;;;;;22.70;3.35;;;;;;;;;;5215858;27;20042;-95
2021/06/05 12:53:22;;;;;;;10.15;1.67;;;;;;;;;;5214677;27;20414;-94
2021/06/05 12:56:07;;;;;;;7.12;1.55;;;;;;;;;;5215832;27;20158;-94
2021/06/05 12:58:47;;;;;;;7.35;1.75;;;;;;;;;;5215383;27;20022;-95
2021/06/05 13:01:30;;;;;;;5.75;1.92;;;;;;;;;;5216078;27;20048;-94
2021/06/05 13:04:07;;;;;;;8.43;1.80;;;;;;;;;;5215681;27;20026;-94
2021/06/05 13:06:59;;;;;;;10.63;2.10;;;;;;;;;;5232738;27;20339;-95
2021/06/05 13:09:41;;;;;;;9.52;1.92;;;;;;;;;;5216916;27;20029;-94
2021/06/05 13:12:20;;;;;;;8.48;2.10;;;;;;;;;;5215766;27;20041;-93
2021/06/05 13:15:04;;;;;;;7.10;1.75;;;;;;;;;;5215865;27;20064;-94
2021/06/05 13:17:42;;;;;;;34.17;4.05;;;;;;;;;;5216842;27;20064;-94
2021/06/05 13:20:21;;;;;;;8.02;1.58;;;;;;;;;;5216849;27;20313;-94
2021/06/05 13:23:08;;;;;;;9.63;1.77;;;;;;;;;;5214036;27;20051;-94
2021/06/05 13:25:42;;;;;;;13.80;2.45;;;;;;;;;;5217589;27;20030;-94
2021/06/05 13:28:15;;;;;;;6.28;1.65;;;;;;;;;;5216284;27;20061;-93
2021/06/05 13:30:51;;;;;;;10.48;1.98;;;;;;;;;;5216197;27;20038;-92
2021/06/05 13:33:34;;;;;;;10.57;1.80;;;;;;;;;;5214168;27;20060;-92
2021/06/05 13:36:07;;;;;;;11.10;2.15;;;;;;;;;;5214731;27;20037;-94
2021/06/05 13:38:50;;;;;;;14.23;1.83;;;;;;;;;;5213449;27;20041;-93
2021/06/05 13:41:24;;;;;;;11.55;2.10;;;;;;;;;;5215232;27;20038;-95
2021/06/05 13:44:03;;;;;;;6.45;1.48;;;;;;;;;;5211949;27;20053;-93
2021/06/05 13:46:39;;;;;;;8.00;1.92;;;;;;;;;;5216356;27;20025;-94
2021/06/05 13:49:11;;;;;;;6.62;1.67;;;;;;;;;;5216272;27;20022;-93
2021/06/05 13:51:54;;;;;;;7.35;1.87;;;;;;;;;;5216417;27;20030;-92
2021/06/05 13:54:27;;;;;;;9.23;1.60;;;;;;;;;;5215526;27;20060;-91
2021/06/05 13:57:02;;;;;;;14.25;2.08;;;;;;;;;;5218062;27;20031;-95
2021/06/05 13:59:53;;;;;;;8.95;1.48;;;;;;;;;;5215728;27;20684;-94
2021/06/05 14:02:42;;;;;;;9.73;1.90;;;;;;;;;;5220513;27;20478;-95
2021/06/05 14:05:30;;;;;;;6.15;1.33;;;;;;;;;;5218628;27;20098;-93
2021/06/05 14:08:18;;;;;;;6.40;1.62;;;;;;;;;;5217467;27;20497;-94
2021/06/05 14:10:51;;;;;;;13.32;2.50;;;;;;;;;;5215467;27;20029;-93
2021/06/05 14:13:27;;;;;;;7.50;1.73;;;;;;;;;;5218264;27;20096;-93
2021/06/05 14:15:57;;;;;;;9.00;2.00;;;;;;;;;;5216068;27;20143;-93
2021/06/05 14:18:29;;;;;;;6.32;2.20;;;;;;;;;;5215469;27;20415;-93
2021/06/05 14:20:59;;;;;;;11.65;1.95;;;;;;;;;;5214991;27;20018;-92
2021/06/05 14:23:31;;;;;;;8.32;2.20;;;;;;;;;;5216139;27;20037;-95
2021/06/05 14:26:00;;;;;;;8.95;1.92;;;;;;;;;;5215247;27;20782;-93
2021/06/05 14:28:38;;;;;;;7.93;2.17;;;;;;;;;;5215841;27;20627;-95
2021/06/05 14:31:07;;;;;;;15.75;2.55;;;;;;;;;;5215635;27;20046;-94
2021/06/05 14:33:36;;;;;;;10.82;1.80;;;;;;;;;;5215773;27;20067;-92
2021/06/05 14:36:08;;;;;;;9.00;1.50;;;;;;;;;;5216017;27;20035;-93
2021/06/05 14:38:40;;;;;;;20.92;2.42;;;;;;;;;;5218781;27;20035;-96
2021/06/05 14:41:11;;;;;;;12.43;1.92;;;;;;;;;;5217959;27;20157;-95
2021/06/05 14:43:43;;;;;;;6.93;1.55;;;;;;;;;;5217120;27;20121;-95
2021/06/05 14:46:20;;;;;;;4.82;1.67;;;;;;;;;;5219171;27;20089;-96
2021/06/05 14:48:52;;;;;;;6.37;1.55;;;;;;;;;;5217287;27;20038;-96
2021/06/05 14:51:23;;;;;;;10.07;2.00;;;;;;;;;;5216359;27;20057;-96
2021/06/05 14:53:55;;;;;;;9.73;1.87;;;;;;;;;;5217402;27;20390;-96
2021/06/05 14:56:29;;;;;;;6.68;1.48;;;;;;;;;;5216632;27;20026;-94
2021/06/05 14:59:02;;;;;;;12.68;1.80;;;;;;;;;;5198818;27;20034;-95
2021/06/05 15:01:35;;;;;;;13.05;2.00;;;;;;;;;;5215374;27;20290;-96
2021/06/05 15:04:13;;;;;;;9.68;2.00;;;;;;;;;;5219455;27;20074;-96
2021/06/05 15:06:53;;;;;;;9.18;2.15;;;;;;;;;;5218449;27;20041;-96
2021/06/05 15:09:50;;;;;;;9.07;1.90;;;;;;;;;;5238870;27;20097;-96
2021/06/05 15:12:23;;;;;;;7.90;1.67;;;;;;;;;;5238387;27;20025;-96
2021/06/05 15:14:59;;;;;;;11.25;2.12;;;;;;;;;;5221448;27;20231;-96
2021/06/05 15:17:36;;;;;;;30.62;3.87;;;;;;;;;;5219446;27;20038;-96
2021/06/05 15:20:10;;;;;;;13.10;2.05;;;;;;;;;;5220168;27;20074;-96
2021/06/05 15:22:53;;;;;;;;;;;;;;;;;;5222308;27;20412;-96
2021/06/05 15:25:38;;;;;;;7.10;1.58;;;;;;;;;;5220443;27;19953;-95
2021/06/05 15:28:11;;;;;;;9.63;2.10;;;;;;;;;;5215071;27;20066;-95
2021/06/05 15:30:50;;;;;;;9.27;1.60;;;;;;;;;;5216630;27;20049;-95
2021/06/05 15:33:26;;;;;;;7.93;2.00;;;;;;;;;;5234604;27;20074;-96
2021/06/05 15:35:59;;;;;;;9.93;1.77;;;;;;;;;;5215637;27;20039;-96
2021/06/05 15:38:28;;;;;;;11.35;1.77;;;;;;;;;;5213677;27;20031;-95
2021/06/05 15:40:59;;;;;;;11.60;1.98;;;;;;;;;;5214599;27;20034;-96
2021/06/05 15:43:34;;;;;;;10.70;1.95;;;;;;;;;;5217278;27;20124;-96
2021/06/05 15:46:08;;;;;;;28.00;3.95;;;;;;;;;;5216933;27;20042;-96
2021/06/05 15:48:44;;;;;;;13.38;1.50;;;;;;;;;;5215013;27;20449;-95
2021/06/05 15:51:27;;;;;;;9.75;2.12;;;;;;;;;;5218096;27;20052;-96
2021/06/05 15:54:07;;;;;;;;;;;;;;;;;;;;;
2021/06/05 15:57:13;;;;;;;12.50;2.20;;;;;;;;;;5233272;27;20025;-96
2021/06/05 15:59:45;;;;;;;10.48;1.80;;;;;;;;;;5216112;27;20069;-96
2021/06/05 16:02:19;;;;;;;15.38;2.12;;;;;;;;;;5215755;27;20037;-95
2021/06/05 16:05:00;;;;;;;13.82;2.40;;;;;;;;;;5217680;27;20033;-95
2021/06/05 16:07:40;;;;;;;10.32;2.10;;;;;;;;;;5219841;27;20030;-94